Kailua, HI

7:32 PM HST on April 26, 2015 (GMT -1000)
Kailua Beach | | Change Station
CLOSE
Current Station
Personal Weather Station
Location: Kailua, HI
Elevation: 10 ft
Nearby Weather Stations
Active Advisory: High Surf Advisory

Elev 10 ft 21.40 °N, 157.73 °W | Updated 5 minutes ago

Light Rain
Light Rain
73.1 °F
Feels Like 73.1 °F
N
13.0
Wind Variable Wind from NE
Gusts 14.0 mph

Today
High -- | Low -- °F
--% Chance of Precip.
Yesterday
High -- | Low -- °F
Precip. -- in
6:03 AM 6:54 PM
First Quarter, 62% visible
Pressure 29.98 in
Visibility -9999.0 miles
Clouds Scattered Clouds 700 ft
Mostly Cloudy 1200 ft
Overcast 2800 ft
Dew Point 71 °F
Humidity 94%
Rainfall 0.15 in
Snow Depth Not available.
UV 0 out of 12
Pollen Not available.
Air Quality Not available.
Flu Activity Regional
SPECI PHNG 270511Z 04011KT -RA SCT007 BKN012 OVC028 23/22 A2998 RMK AO2 P0001 T02280217 $

More Conditions Fewer Conditions

Pressure 29.98 in
Visibility -9999.0 miles
Clouds Scattered Clouds 700 ft
Mostly Cloudy 1200 ft
Overcast 2800 ft
Dew Point 71 °F
Humidity 94%
Rainfall 0.15 in
Snow Depth Not available.
UV 0 out of 12
Pollen Not available.
Air Quality Not available.
Flu Activity Regional
SPECI PHNG 270511Z 04011KT -RA SCT007 BKN012 OVC028 23/22 A2998 RMK AO2 P0001 T02280217 $

More Conditions Fewer Conditions

10-Day Weather Forecast

Almanac

Astronomy

Apr. 26, 2015 Rise Set
Actual Time
Civil Twilight
Nautical Twilight
Astronomical Twilight
Moon
Length of Visible Light
Length of Day
Tomorrow will be .
, % of the Moon is Illuminated

Today's Extremes

State Highs State Lows

Community

WunderPhotos

Upload Photos

1,817,267 photos uploaded!

WunderBlogs® & News

Nearby

Air Quality

  Air Quality AQ Index Pollutant
Not available.

Snow Depth

Station Depth Elevation

Earthquake Activity

City Distance Mag. Time & Date
Minimum magnitude displayed is 2.5.

Coastal Water Temperatures

Place Temperature

Stations

Nearby Weather Stations

Station Location Temp. Windchill Dew Point Humidity Wind Precip. Elev Updated Type
                   
High Surf Advisory
Statement as of 3:32 PM HST on April 26, 2015

... High surf advisory in effect from 6 am Monday to 6 PM HST
Tuesday...

The National Weather Service in Honolulu has issued a high surf
advisory... which is in effect from 6 am Monday to 6 PM HST
Tuesday.

* Surf... rising to 10 to 15 feet along north facing shores and 6
to 9 feet along east facing shores.

* Timing... beginning 6 am HST Monday until 6 PM HST Tuesday.

* Impacts... moderate... expect strong breaking waves... shore
break... and strong longshore and rip currents making swimming
difficult and dangerous.

Precautionary/preparedness actions...

Beachgoers... swimmers... and surfers should heed all advice given
by ocean safety officials and exercise caution. Boaters should
expect recreational surfers and body boarders utilizing Harbor
channels to access surfing areas.



Burke